Time;durP1;ratioP1;P1;durP2;ratioP2;P2;SDS_P1;SDS_P2;PMS_P1;PMS_P2;Temp;Humidity;BMP_temperature;BMP_pressure;BME280_temperature;BME280_humidity;BME280_pressure;Samples;Min_cycle;Max_cycle;Signal;HPM_P1;HPM_P2
2021/10/05 00:01:25;;;;;;;15.88;9.43;;;;;;;14.27;74.98;100925.32;1756622;80;25867;-65
2021/10/05 00:03:51;;;;;;;16.62;9.98;;;;;;;14.24;74.90;100919.62;1769321;80;25972;-65
2021/10/05 00:06:17;;;;;;;16.60;9.43;;;;;;;14.21;74.88;100908.13;1758983;80;26513;-65
2021/10/05 00:08:43;;;;;;;13.22;9.18;;;;;;;14.14;74.89;100911.63;1779718;80;27903;-65
2021/10/05 00:11:09;;;;;;;16.67;9.20;;;;;;;14.08;75.00;100905.22;1702719;82;26077;-65
2021/10/05 00:13:35;;;;;;;19.30;9.98;;;;;;;14.07;75.10;100899.91;1701526;82;26251;-66
2021/10/05 00:16:00;;;;;;;16.27;9.48;;;;;;;14.05;75.09;100895.95;1693962;82;26617;-65
2021/10/05 00:18:26;;;;;;;15.15;9.40;;;;;;;14.01;75.10;100894.37;1720112;81;25867;-65
2021/10/05 00:20:52;;;;;;;13.03;8.73;;;;;;;13.98;75.17;100893.19;1727699;81;27489;-65
2021/10/05 00:23:18;;;;;;;17.23;10.05;;;;;;;13.93;75.15;100900.17;1713996;81;25947;-65
2021/10/05 00:25:44;;;;;;;17.48;10.25;;;;;;;13.90;75.29;100900.81;1724703;81;25766;-65
2021/10/05 00:28:09;;;;;;;17.37;10.40;;;;;;;13.88;75.36;100902.24;1706745;82;26063;-65
2021/10/05 00:30:35;;;;;;;13.08;8.65;;;;;;;13.85;75.42;100901.05;1707855;81;25766;-65
2021/10/05 00:33:02;;;;;;;21.60;10.32;;;;;;;13.83;75.32;100897.57;1719432;81;28137;-66
2021/10/05 00:35:28;;;;;;;24.02;11.08;;;;;;;13.78;75.33;100887.98;1728268;81;26924;-66
2021/10/05 00:37:54;;;;;;;17.85;10.45;;;;;;;13.73;75.37;100878.80;1724827;81;25777;-66
2021/10/05 00:40:20;;;;;;;19.25;10.82;;;;;;;13.69;75.48;100881.73;1727722;81;25942;-66
2021/10/05 00:42:47;;;;;;;16.67;10.28;;;;;;;13.68;75.56;100876.83;1728981;81;25735;-66
2021/10/05 00:45:14;;;;;;;19.57;10.90;;;;;;;13.68;75.62;100882.69;1722356;81;27374;-66
2021/10/05 00:47:40;;;;;;;22.05;10.58;;;;;;;13.66;75.65;100874.69;1712353;81;25815;-66
2021/10/05 00:50:07;;;;;;;18.75;11.03;;;;;;;13.64;75.60;100872.55;1718031;81;26072;-67
2021/10/05 00:52:36;;;;;;;18.52;11.30;;;;;;;13.61;75.64;100876.75;1723354;81;26124;-66
2021/10/05 00:55:04;;;;;;;21.40;12.30;;;;;;;13.57;75.76;100873.34;1727462;81;26446;-66
2021/10/05 00:57:30;;;;;;;17.92;11.60;;;;;;;13.58;75.84;100874.22;1689122;82;27993;-66
2021/10/05 00:59:57;;;;;;;15.65;10.95;;;;;;;13.56;75.87;100870.73;1697968;82;25848;-66
2021/10/05 01:02:23;;;;;;;18.62;10.70;;;;;;;13.56;75.87;100868.04;1703135;82;25786;-66
2021/10/05 01:04:49;;;;;;;23.70;10.03;;;;;;;13.55;75.90;100866.30;1683864;82;26022;-66
2021/10/05 01:07:18;;;;;;;17.73;11.28;;;;;;;13.53;75.91;100863.68;1695139;82;25357;-66
2021/10/05 01:09:44;;;;;;;19.98;11.65;;;;;;;13.52;75.91;100855.68;1716034;81;27446;-67
2021/10/05 01:12:12;;;;;;;18.92;11.40;;;;;;;13.49;75.95;100854.50;1709748;81;25682;-66
2021/10/05 01:14:39;;;;;;;21.37;11.55;;;;;;;13.47;75.99;100853.70;1703614;82;26494;-65
2021/10/05 01:17:07;;;;;;;24.50;12.20;;;;;;;13.45;76.03;100842.14;1696857;82;26007;-66
2021/10/05 01:19:33;;;;;;;18.50;11.15;;;;;;;13.41;76.01;100844.59;1709923;81;25766;-66
2021/10/05 01:22:00;;;;;;;19.55;12.10;;;;;;;13.39;76.06;100843.80;1694285;82;27847;-66
2021/10/05 01:24:27;;;;;;;19.37;11.00;;;;;;;13.36;75.99;100850.70;1698950;81;26138;-66
2021/10/05 01:26:57;;;;;;;23.38;10.75;;;;;;;13.31;76.11;100844.20;1695734;82;25730;-66
2021/10/05 01:29:28;;;;;;;20.80;11.53;;;;;;;13.28;76.11;100849.27;1697394;82;26006;-66
2021/10/05 01:31:59;;;;;;;17.82;10.45;;;;;;;13.26;76.25;100843.09;1695138;82;25911;-66
2021/10/05 01:34:26;;;;;;;19.67;11.53;;;;;;;13.24;76.35;100838.27;1711728;81;27506;-66
2021/10/05 01:36:55;;;;;;;22.32;11.80;;;;;;;13.24;76.42;100833.35;1734264;81;25734;-66
2021/10/05 01:39:34;;;;;;;19.50;10.93;;;;;;;13.18;76.48;100827.81;1716318;81;25764;-66
2021/10/05 01:42:07;;;;;;;18.02;10.48;;;;;;;13.22;76.51;100835.25;1717044;81;25909;-66
2021/10/05 01:44:35;;;;;;;17.57;11.53;;;;;;;13.20;76.60;100836.67;1722981;81;25906;-66
2021/10/05 01:47:04;;;;;;;18.65;10.78;;;;;;;13.19;76.58;100826.86;1717383;81;27364;-67
2021/10/05 01:49:29;;;;;;;19.25;12.50;;;;;;;13.17;76.62;100831.45;1686436;82;25857;-66
2021/10/05 01:51:55;;;;;;;25.37;16.90;;;;;;;13.15;76.61;100817.16;1720276;81;26480;-65
2021/10/05 01:54:22;;;;;;;33.25;18.10;;;;;;;13.13;76.60;100815.03;1694362;82;26674;-66
2021/10/05 01:56:48;;;;;;;30.48;20.12;;;;;;;13.10;76.68;100813.84;1719634;81;26335;-66
2021/10/05 01:59:15;;;;;;;27.07;17.27;;;;;;;13.08;76.72;100814.87;1716888;81;27393;-66
2021/10/05 02:01:41;;;;;;;31.65;18.75;;;;;;;13.05;76.72;100806.95;1730544;81;25913;-66
2021/10/05 02:04:09;;;;;;;29.72;18.57;;;;;;;13.03;76.77;100809.72;1725405;81;25831;-67
2021/10/05 02:06:37;;;;;;;29.15;17.75;;;;;;;12.99;76.83;100809.51;1738669;81;27232;-66
2021/10/05 02:09:05;;;;;;;27.20;16.37;;;;;;;12.98;77.00;100809.98;1730702;81;26146;-66
2021/10/05 02:11:32;;;;;;;30.75;16.10;;;;;;;12.98;76.93;100814.50;1723019;81;27450;-67
2021/10/05 02:13:58;;;;;;;25.77;16.10;;;;;;;12.95;77.05;100807.92;1731122;81;25849;-67
2021/10/05 02:16:24;;;;;;;24.47;15.00;;;;;;;12.96;77.10;100805.63;1733396;81;25824;-66
2021/10/05 02:18:50;;;;;;;25.08;12.90;;;;;;;12.94;77.16;100803.48;1730554;81;26087;-66
2021/10/05 02:21:18;;;;;;;19.48;13.80;;;;;;;12.93;77.19;100806.66;1715293;82;25803;-66
2021/10/05 02:26:32;;;;;;;30.02;14.38;;;;;;;12.89;77.20;100808.23;1733292;81;25929;-66
2021/10/05 02:28:58;;;;;;;27.37;14.93;;;;;;;12.88;77.34;100807.84;1731911;81;25769;-67
2021/10/05 02:31:25;;;;;;;25.95;14.38;;;;;;;12.86;77.32;100801.19;1729905;81;26730;-66
2021/10/05 02:33:51;;;;;;;29.57;14.70;;;;;;;12.83;77.34;100807.20;1737965;81;26346;-66
2021/10/05 02:36:17;;;;;;;30.05;14.70;;;;;;;12.82;77.47;100805.45;1737931;81;27458;-66
2021/10/05 02:38:43;;;;;;;28.32;15.68;;;;;;;12.81;77.50;100799.20;1741966;81;25943;-66
2021/10/05 02:41:09;;;;;;;26.40;14.30;;;;;;;12.81;77.54;100789.78;1730421;81;25832;-66
2021/10/05 02:43:35;;;;;;;28.02;13.60;;;;;;;12.81;77.60;100784.41;1731992;81;26550;-66
2021/10/05 02:46:01;;;;;;;24.07;13.93;;;;;;;12.79;77.59;100772.85;1740679;81;25738;-66
2021/10/05 02:48:27;;;;;;;28.20;15.00;;;;;;;12.77;77.56;100768.50;1731055;81;28131;-66
2021/10/05 02:50:53;;;;;;;21.33;14.28;;;;;;;12.76;77.72;100772.14;1732732;81;25724;-66
2021/10/05 02:53:19;;;;;;;25.90;14.03;;;;;;;12.73;77.70;100775.84;1734088;81;25857;-66
2021/10/05 02:55:47;;;;;;;23.07;14.28;;;;;;;12.70;77.79;100776.48;1736835;81;26509;-66
2021/10/05 02:58:14;;;;;;;26.42;14.68;;;;;;;12.68;77.79;100778.77;1732046;81;25719;-66
2021/10/05 03:00:41;;;;;;;24.52;13.48;;;;;;;12.65;77.78;100770.86;1732634;81;28059;-66
2021/10/05 03:03:07;;;;;;;23.15;12.55;;;;;;;12.62;77.79;100771.48;1741464;80;25747;-65
2021/10/05 03:05:33;;;;;;;21.10;13.98;;;;;;;12.58;77.85;100768.55;1742962;81;25694;-66
2021/10/05 03:07:59;;;;;;;21.82;13.95;;;;;;;12.54;77.88;100771.86;1728772;81;26091;-68
2021/10/05 03:10:25;;;;;;;21.73;13.65;;;;;;;12.52;77.94;100772.88;1736453;81;25754;-66
2021/10/05 03:12:51;;;;;;;29.07;14.53;;;;;;;12.47;77.94;100766.39;1705378;82;28017;-67
2021/10/05 03:15:18;;;;;;;26.40;14.60;;;;;;;12.44;78.05;100766.53;1700718;82;25860;-66
2021/10/05 03:17:44;;;;;;;24.63;15.30;;;;;;;12.42;77.96;100760.84;1717515;81;25879;-66
2021/10/05 03:20:10;;;;;;;31.25;14.98;;;;;;;12.38;78.07;100761.46;1722505;81;26014;-66
2021/10/05 03:22:37;;;;;;;25.52;16.23;;;;;;;12.36;78.07;100760.66;1722984;81;25757;-66
2021/10/05 03:25:04;;;;;;;34.67;16.42;;;;;;;12.33;78.10;100760.34;1711143;81;27445;-66
2021/10/05 03:27:31;;;;;;;30.50;15.63;;;;;;;12.31;78.22;100758.20;1725446;81;25738;-66
2021/10/05 03:29:58;;;;;;;23.38;15.10;;;;;;;12.30;78.12;100760.48;1717117;81;26393;-66
2021/10/05 03:32:24;;;;;;;26.50;15.98;;;;;;;12.28;78.23;100768.23;1723327;81;26033;-66
2021/10/05 03:34:50;;;;;;;29.82;15.63;;;;;;;12.28;78.20;100766.89;1699893;82;25886;-66
2021/10/05 03:37:15;;;;;;;26.17;15.28;;;;;;;12.26;78.25;100763.40;1715111;81;27373;-67
2021/10/05 03:39:41;;;;;;;27.70;16.85;;;;;;;12.24;78.25;100761.26;1725735;81;25761;-66
2021/10/05 03:42:07;;;;;;;31.45;17.57;;;;;;;12.23;78.27;100762.20;1725078;81;26390;-66
2021/10/05 03:44:33;;;;;;;27.35;16.50;;;;;;;12.22;78.29;100755.95;1692623;82;26074;-66
2021/10/05 03:46:59;;;;;;;32.25;17.12;;;;;;;12.21;78.31;100757.38;1772774;80;25755;-66
2021/10/05 03:49:26;;;;;;;29.42;18.35;;;;;;;12.18;78.37;100752.16;1768361;80;28029;-66
2021/10/05 03:51:52;;;;;;;32.53;18.30;;;;;;;12.16;78.33;100756.25;1769163;80;25911;-66
2021/10/05 03:54:18;;;;;;;30.95;18.02;;;;;;;12.15;78.40;100748.27;1772158;80;25837;-66
2021/10/05 03:56:44;;;;;;;30.65;19.25;;;;;;;12.13;78.35;100742.97;1764887;80;26058;-66
2021/10/05 03:59:15;;;;;;;31.15;17.42;;;;;;;12.11;78.41;100735.45;1774974;80;26499;-66
2021/10/05 04:01:37;;;;;;;31.23;19.20;;;;;;;12.08;78.39;100728.88;1766387;80;27361;-66
2021/10/05 04:04:03;;;;;;;36.65;19.05;;;;;;;12.06;78.38;100726.74;1775019;80;25758;-66
2021/10/05 04:06:29;;;;;;;39.78;18.25;;;;;;;12.04;78.46;100723.26;1761456;80;25636;-66
2021/10/05 04:08:55;;;;;;;27.90;17.98;;;;;;;12.00;78.41;100718.50;1773107;80;25978;-66
2021/10/05 04:11:21;;;;;;;36.38;19.67;;;;;;;11.99;78.50;100723.95;1770273;80;25873;-66
2021/10/05 04:13:46;;;;;;;38.30;20.10;;;;;;;11.96;78.43;100711.54;1763503;80;27513;-66
2021/10/05 04:16:12;;;;;;;35.03;20.23;;;;;;;11.93;78.45;100714.84;1750189;80;25754;-66
2021/10/05 04:18:38;;;;;;;36.23;19.55;;;;;;;11.89;78.50;100711.44;1774018;80;26248;-66
2021/10/05 04:21:05;;;;;;;34.95;20.40;;;;;;;11.86;78.53;100711.58;1758722;80;26553;-66
2021/10/05 04:23:31;;;;;;;40.45;21.05;;;;;;;11.85;78.67;100716.55;1765125;80;25758;-66
2021/10/05 04:25:57;;;;;;;43.17;21.65;;;;;;;11.83;78.69;100718.44;1780547;78;27426;-66
2021/10/05 04:28:23;;;;;;;36.83;22.37;;;;;;;11.82;78.64;100718.03;1750909;80;25731;-66
2021/10/05 04:30:49;;;;;;;42.83;23.30;;;;;;;11.76;78.71;100703.52;1756493;80;25737;-66
2021/10/05 04:33:14;;;;;;;45.75;24.80;;;;;;;11.78;78.72;100705.70;1768342;80;25936;-66
2021/10/05 04:35:40;;;;;;;47.45;23.18;;;;;;;11.77;78.74;100699.92;1755456;80;26453;-66
2021/10/05 04:38:07;;;;;;;39.98;24.07;;;;;;;11.76;78.76;100693.25;1767554;80;27964;-66
2021/10/05 04:40:33;;;;;;;45.52;24.25;;;;;;;11.73;78.83;100679.50;1763521;80;25763;-66
2021/10/05 04:42:59;;;;;;;50.92;25.52;;;;;;;11.71;78.84;100676.02;1772877;80;25773;-66
2021/10/05 04:45:25;;;;;;;47.83;25.68;;;;;;;11.68;78.88;100667.64;1767879;79;26289;-66
2021/10/05 04:47:50;;;;;;;44.08;25.35;;;;;;;11.66;78.95;100665.97;1754693;80;25743;-66
2021/10/05 04:50:17;;;;;;;48.70;26.45;;;;;;;11.64;79.01;100658.45;1753288;80;27398;-66
2021/10/05 04:52:43;;;;;;;50.05;25.75;;;;;;;11.63;79.10;100660.75;1761567;80;26419;-66
2021/10/05 04:55:09;;;;;;;45.67;26.12;;;;;;;11.62;79.04;100654.98;1763512;79;25698;-66
2021/10/05 04:57:35;;;;;;;49.10;27.22;;;;;;;11.61;79.07;100655.92;1768644;80;26671;-66
2021/10/05 05:00:01;;;;;;;44.73;25.80;;;;;;;11.59;79.15;100644.37;1757133;80;25910;-66
2021/10/05 05:02:28;;;;;;;47.65;24.52;;;;;;;11.59;79.20;100639.88;1758531;80;27443;-66
2021/10/05 05:04:54;;;;;;;46.25;26.45;;;;;;;11.60;79.20;100639.41;1773576;80;26820;-67
2021/10/05 05:07:20;;;;;;;49.23;26.33;;;;;;;11.61;79.25;100643.84;1759892;80;25694;-66
2021/10/05 05:09:45;;;;;;;47.75;26.97;;;;;;;11.63;79.26;100631.21;1692359;83;25973;-65
2021/10/05 05:12:11;;;;;;;48.25;27.17;;;;;;;11.66;79.35;100618.98;1707340;82;26058;-65
2021/10/05 05:14:37;;;;;;;54.70;28.77;;;;;;;11.69;79.37;100620.18;1715525;82;28131;-66
2021/10/05 05:17:03;;;;;;;49.35;28.30;;;;;;;11.70;79.32;100624.60;1710501;82;25995;-65
2021/10/05 05:19:29;;;;;;;52.27;28.07;;;;;;;11.69;79.27;100624.20;1744163;80;25816;-66
2021/10/05 05:21:59;;;;;;;54.38;28.92;;;;;;;11.68;79.25;100630.05;1742941;80;26443;-67
2021/10/05 05:24:22;;;;;;;46.63;27.62;;;;;;;11.70;79.39;100620.58;1751586;80;25810;-66
2021/10/05 05:26:48;;;;;;;53.70;27.93;;;;;;;11.76;79.50;100618.94;1757743;80;27504;-66
2021/10/05 05:29:14;;;;;;;55.10;29.07;;;;;;;11.79;79.48;100616.14;1766907;80;25743;-67
2021/10/05 05:31:40;;;;;;;57.20;31.00;;;;;;;11.84;79.58;100617.25;1759043;80;25564;-66
2021/10/05 05:34:06;;;;;;;58.48;30.48;;;;;;;11.91;79.62;100616.87;1758425;80;26691;-67
2021/10/05 05:36:31;;;;;;;58.00;30.68;;;;;;;11.99;79.60;100620.05;1751150;80;26329;-66
2021/10/05 05:38:57;;;;;;;59.25;32.17;;;;;;;12.06;79.67;100621.09;1748213;80;27397;-67
2021/10/05 05:41:23;;;;;;;59.85;32.95;;;;;;;12.13;79.61;100620.71;1755227;80;25838;-67
2021/10/05 05:43:49;;;;;;;60.03;34.25;;;;;;;12.20;79.67;100621.27;1767371;80;25818;-67
2021/10/05 05:46:15;;;;;;;58.10;32.38;;;;;;;12.27;79.70;100610.14;1748636;80;26012;-67
2021/10/05 05:48:41;;;;;;;59.03;34.73;;;;;;;12.36;79.70;100604.77;1760268;80;25784;-67
2021/10/05 05:51:07;;;;;;;65.67;33.90;;;;;;;12.44;79.68;100603.03;1762289;80;27933;-66
2021/10/05 05:53:33;;;;;;;64.15;35.68;;;;;;;12.52;79.70;100603.50;1752339;80;25809;-66
2021/10/05 05:55:59;;;;;;;61.18;36.83;;;;;;;12.59;79.63;100604.45;1750402;80;25804;-66
2021/10/05 05:58:25;;;;;;;65.08;35.58;;;;;;;12.64;79.55;100609.59;1754012;80;26698;-66
2021/10/05 06:00:51;;;;;;;61.45;35.35;;;;;;;12.67;79.65;100602.22;1761034;80;26000;-66
2021/10/05 06:03:17;;;;;;;64.42;37.38;;;;;;;12.76;79.67;100604.91;1756870;80;27987;-66
2021/10/05 06:05:43;;;;;;;69.82;38.67;;;;;;;12.83;79.68;100606.32;1760081;79;26356;-66
2021/10/05 06:08:09;;;;;;;61.60;37.45;;;;;;;12.93;79.68;100608.04;1768826;80;25869;-65
2021/10/05 06:10:35;;;;;;;65.80;38.13;;;;;;;13.01;79.70;100602.61;1753005;80;26013;-63
2021/10/05 06:13:01;;;;;;;65.72;36.53;;;;;;;13.10;79.65;100603.94;1758529;79;25810;-63
2021/10/05 06:15:26;;;;;;;65.87;39.50;;;;;;;13.16;79.61;100600.94;1761858;79;26891;-63
2021/10/05 06:17:53;;;;;;;70.12;37.95;;;;;;;13.24;79.63;100594.66;1769822;79;26039;-64
2021/10/05 06:20:23;;;;;;;67.22;37.42;;;;;;;13.32;79.62;100596.93;1774106;79;26181;-64
2021/10/05 06:22:51;;;;;;;62.95;35.85;;;;;;;13.41;79.56;100589.69;1774328;79;26473;-64
2021/10/05 06:25:22;;;;;;;67.58;37.10;;;;;;;13.48;79.53;100581.66;1767506;78;26461;-66
2021/10/05 06:27:48;;;;;;;;;;;;;;;13.53;79.37;100581.39;1763015;79;26943;-67
2021/10/05 06:30:16;;;;;;;63.33;34.98;;;;;;;13.58;79.44;100583.35;1764981;79;25919;-67
2021/10/05 06:32:44;;;;;;;72.17;38.08;;;;;;;13.63;79.46;100577.23;1762896;79;25887;-66
2021/10/05 06:35:11;;;;;;;69.27;39.30;;;;;;;13.73;79.45;100569.02;1765578;79;25993;-66
2021/10/05 06:37:38;;;;;;;77.80;38.10;;;;;;;13.84;79.41;100569.26;1751819;79;25954;-67
2021/10/05 06:40:06;;;;;;;66.05;37.50;;;;;;;13.92;79.36;100558.91;1767998;79;27421;-66
2021/10/05 06:42:36;;;;;;;72.60;39.15;;;;;;;14.03;79.34;100560.10;1767015;79;25765;-66
2021/10/05 06:45:05;;;;;;;76.37;39.78;;;;;;;14.11;79.26;100560.52;1761442;79;25875;-66
2021/10/05 06:47:32;;;;;;;66.15;38.38;;;;;;;14.15;79.08;100564.77;1758238;79;26152;-65
2021/10/05 06:49:58;;;;;;;65.70;39.23;;;;;;;14.21;79.10;100561.23;1765505;79;25718;-68
2021/10/05 06:52:25;;;;;;;71.20;40.55;;;;;;;14.26;79.04;100558.25;1773039;79;27305;-66
2021/10/05 06:54:51;;;;;;;66.45;38.08;;;;;;;14.28;78.97;100556.34;1774796;79;25461;-65
2021/10/05 06:57:17;;;;;;;70.92;39.65;;;;;;;14.31;78.93;100550.77;1765085;79;25863;-66
2021/10/05 06:59:43;;;;;;;73.22;38.48;;;;;;;14.33;78.85;100543.45;1769552;79;26505;-65
2021/10/05 07:02:08;;;;;;;76.62;39.48;;;;;;;14.35;78.80;100542.88;1773328;79;26472;-64
2021/10/05 07:04:34;;;;;;;78.02;38.45;;;;;;;14.38;78.77;100542.69;1759235;79;27390;-65
2021/10/05 07:07:00;;;;;;;63.83;38.92;;;;;;;14.41;78.73;100534.89;1765303;79;25820;-66
2021/10/05 07:09:26;;;;;;;68.85;39.65;;;;;;;14.47;78.80;100531.85;1781775;79;25770;-66
2021/10/05 07:11:52;;;;;;;67.03;37.63;;;;;;;14.57;78.77;100531.67;1773484;79;25709;-66
2021/10/05 07:14:17;;;;;;;64.75;37.08;;;;;;;14.67;78.68;100534.67;1767474;80;25863;-65
2021/10/05 07:16:43;;;;;;;64.72;38.40;;;;;;;14.74;78.58;100538.24;1753890;80;27387;-65
2021/10/05 07:19:09;;;;;;;58.13;37.67;;;;;;;14.80;78.57;100525.72;1762467;80;25813;-65
2021/10/05 07:21:35;;;;;;;69.35;38.28;;;;;;;14.87;78.49;100523.02;1764575;80;25813;-65
2021/10/05 07:24:01;;;;;;;67.53;39.00;;;;;;;14.96;78.50;100515.31;1756837;80;26404;-65
2021/10/05 07:26:29;;;;;;;64.22;37.17;;;;;;;15.03;78.39;100512.13;1767052;80;26435;-65
2021/10/05 07:28:56;;;;;;;70.67;40.63;;;;;;;15.07;78.27;100503.34;1756790;80;27449;-65
2021/10/05 07:31:22;;;;;;;76.45;42.95;;;;;;;15.08;78.20;100495.14;1765162;80;25924;-65
2021/10/05 07:33:48;;;;;;;69.27;39.92;;;;;;;15.12;78.20;100487.72;1765772;80;25847;-66
2021/10/05 07:36:17;;;;;;;67.10;36.88;;;;;;;15.15;78.12;100482.13;1757528;80;26039;-65
2021/10/05 07:38:42;;;;;;;63.55;38.05;;;;;;;15.18;78.05;100485.97;1762781;80;26494;-65
2021/10/05 07:41:08;;;;;;;71.75;38.75;;;;;;;15.19;77.99;100478.25;1764894;80;27526;-65
2021/10/05 07:43:35;;;;;;;70.22;39.58;;;;;;;15.24;77.98;100466.67;1760429;80;26009;-65
2021/10/05 07:46:01;;;;;;;67.47;40.45;;;;;;;15.29;77.91;100456.92;1771720;80;25729;-65
2021/10/05 07:48:28;;;;;;;75.35;40.73;;;;;;;15.35;77.88;100451.98;1774945;79;26069;-65
2021/10/05 07:50:55;;;;;;;75.97;39.60;;;;;;;15.41;77.89;100450.70;1758584;80;25347;-65
2021/10/05 07:53:22;;;;;;;67.80;40.35;;;;;;;15.50;77.88;100449.61;1766848;80;28192;-65
2021/10/05 07:55:49;;;;;;;73.45;38.67;;;;;;;15.64;77.88;100457.28;1760665;80;25995;-65
2021/10/05 07:58:15;;;;;;;66.07;38.78;;;;;;;15.79;77.85;100458.45;1763590;80;25864;-66
2021/10/05 08:00:41;;;;;;;57.98;36.95;;;;;;;15.91;77.76;100454.92;1759531;80;27988;-65
2021/10/05 08:03:07;;;;;;;62.95;36.58;;;;;;;16.02;77.68;100446.08;1759955;80;25911;-65
2021/10/05 08:05:33;;;;;;;59.98;36.23;;;;;;;16.13;77.65;100436.73;1773112;80;27320;-66
2021/10/05 08:08:05;;;;;;;71.00;39.95;;;;;;;16.24;77.61;100421.97;1764220;80;25682;-65
2021/10/05 08:10:35;;;;;;;59.63;33.73;;;;;;;16.36;77.55;100413.48;1762005;80;25736;-66
2021/10/05 08:13:02;;;;;;;53.15;31.93;;;;;;;16.49;77.50;100405.36;1769636;80;26126;-65
2021/10/05 08:15:29;;;;;;;52.62;32.28;;;;;;;16.61;77.40;100394.14;1759673;80;25824;-65
2021/10/05 08:17:55;;;;;;;47.85;28.92;;;;;;;16.72;77.27;100397.83;1760535;80;28053;-65
2021/10/05 08:20:23;;;;;;;52.93;29.65;;;;;;;16.83;77.18;100384.38;1766651;79;25938;-66
2021/10/05 08:22:49;;;;;;;42.20;27.40;;;;;;;16.93;77.02;100378.28;1760890;80;25919;-65
2021/10/05 08:25:16;;;;;;;47.75;27.45;;;;;;;17.04;76.94;100376.52;1767219;79;26044;-66
2021/10/05 08:27:45;;;;;;;43.68;26.73;;;;;;;17.14;76.81;100373.49;1758875;80;25763;-65
2021/10/05 08:30:13;;;;;;;46.28;25.85;;;;;;;17.26;76.65;100372.20;1744711;80;27991;-66
2021/10/05 08:32:41;;;;;;;40.38;23.65;;;;;;;17.36;76.52;100363.75;1755190;80;25741;-65
2021/10/05 08:35:08;;;;;;;37.00;23.27;;;;;;;17.44;76.39;100358.12;1764149;80;25801;-67
2021/10/05 08:37:34;;;;;;;38.55;23.92;;;;;;;17.47;76.32;100338.92;1763575;80;26007;-65
2021/10/05 08:40:00;;;;;;;42.90;22.80;;;;;;;17.69;76.17;100350.35;1768007;80;25784;-67
2021/10/05 08:42:26;;;;;;;38.50;24.07;;;;;;;17.80;75.97;100343.61;1701036;83;27996;-65
2021/10/05 08:44:52;;;;;;;37.25;22.80;;;;;;;17.91;75.76;100341.91;1698258;82;25971;-65
2021/10/05 08:47:18;;;;;;;42.45;24.00;;;;;;;18.01;75.59;100342.41;1724247;81;25637;-68
2021/10/05 08:49:46;;;;;;;42.38;24.37;;;;;;;18.13;75.41;100340.58;1687871;82;26378;-65
2021/10/05 08:52:13;;;;;;;37.40;23.42;;;;;;;18.25;75.21;100328.71;1712943;81;25802;-65
2021/10/05 08:54:41;;;;;;;41.75;26.90;;;;;;;18.34;75.07;100334.76;1723754;81;27395;-65
2021/10/05 08:57:07;;;;;;;46.37;26.95;;;;;;;18.43;74.88;100321.80;1720692;81;27111;-68
2021/10/05 08:59:34;;;;;;;44.67;26.10;;;;;;;18.53;74.61;100324.63;1713490;81;25842;-68
2021/10/05 09:02:13;;;;;;;40.33;26.30;;;;;;;18.59;74.35;100331.41;1713037;81;26783;-68
2021/10/05 09:04:43;;;;;;;39.40;27.52;;;;;;;18.65;74.17;100319.59;1753177;80;26445;-66
2021/10/05 09:07:20;;;;;;;41.37;27.30;;;;;;;18.71;74.01;100304.65;1759079;80;27567;-66
2021/10/05 09:09:58;;;;;;;45.30;28.23;;;;;;;18.78;73.79;100309.45;1761926;80;26329;-67
2021/10/05 09:12:27;;;;;;;36.70;25.82;;;;;;;18.85;73.54;100300.79;1770438;80;25856;-66
2021/10/05 09:14:55;;;;;;;43.28;27.37;;;;;;;18.94;73.37;100300.89;1772550;80;25990;-66
2021/10/05 09:17:24;;;;;;;42.53;26.73;;;;;;;19.00;73.17;100294.94;1767369;79;25256;-66
2021/10/05 09:19:52;;;;;;;39.98;27.00;;;;;;;19.07;72.99;100280.34;1756011;80;28295;-64
2021/10/05 09:22:23;;;;;;;45.90;27.75;;;;;;;19.15;72.77;100284.64;1765480;80;27152;-65
2021/10/05 09:24:52;;;;;;;44.58;26.30;;;;;;;19.22;72.57;100287.20;1759747;80;25700;-66
2021/10/05 09:27:19;;;;;;;40.05;24.45;;;;;;;19.31;72.42;100279.62;1757698;80;26133;-66
2021/10/05 09:29:49;;;;;;;34.60;23.45;;;;;;;19.40;72.23;100276.61;1775956;80;26589;-66
2021/10/05 09:32:19;;;;;;;40.83;23.62;;;;;;;19.45;72.01;100265.71;1764857;80;28067;-66
2021/10/05 09:34:56;;;;;;;37.00;21.90;;;;;;;19.55;71.78;100275.33;1767388;80;27108;-66
2021/10/05 09:37:33;;;;;;;41.80;22.95;;;;;;;19.61;71.55;100268.00;1771762;80;25794;-65
2021/10/05 09:40:12;;;;;;;41.00;24.27;;;;;;;19.67;71.36;100253.87;1761143;80;25759;-66
2021/10/05 09:42:46;;;;;;;49.38;25.32;;;;;;;19.73;71.20;100257.41;1760301;80;26573;-67
2021/10/05 09:45:16;;;;;;;37.70;24.57;;;;;;;19.76;70.92;100246.27;1762473;80;28076;-68
2021/10/05 09:47:47;;;;;;;39.80;23.38;;;;;;;19.78;70.70;100240.19;1758577;80;44470;-67
2021/10/05 09:50:29;;;;;;;34.23;23.18;;;;;;;19.81;70.51;100238.20;1765058;80;25820;-67
2021/10/05 09:53:04;;;;;;;38.90;23.77;;;;;;;19.84;70.37;100228.41;1754433;80;26086;-67
2021/10/05 09:55:37;;;;;;;37.55;22.70;;;;;;;19.87;70.21;100224.92;1772917;80;25800;-68
2021/10/05 09:58:04;;;;;;;35.68;22.70;;;;;;;19.97;69.88;100227.68;1769935;80;27470;-68
2021/10/05 10:00:36;;;;;;;32.90;20.70;;;;;;;19.97;69.88;100227.68;1766022;80;25902;-68
2021/10/05 10:03:06;;;;;;;36.08;21.87;;;;;;;20.01;69.63;100217.75;1777384;80;25785;-67
2021/10/05 10:05:34;;;;;;;37.67;22.70;;;;;;;20.06;69.45;100222.78;1762514;80;26918;-67
2021/10/05 10:08:00;;;;;;;33.45;22.15;;;;;;;20.22;69.17;100219.05;1766251;80;25849;-66
2021/10/05 10:10:30;;;;;;;34.15;20.77;;;;;;;20.22;69.17;100219.05;1763703;80;27503;-66
2021/10/05 10:13:00;;;;;;;33.13;20.97;;;;;;;20.31;69.08;100212.77;1785088;80;25630;-66
2021/10/05 10:15:33;;;;;;;36.28;20.75;;;;;;;20.40;68.97;100210.60;1754438;80;25797;-66
2021/10/05 10:18:12;;;;;;;37.30;19.85;;;;;;;20.51;68.80;100201.45;1767514;80;26778;-66
2021/10/05 10:20:44;;;;;;;29.77;17.17;;;;;;;20.63;68.66;100198.10;1777614;80;25807;-66
2021/10/05 10:23:23;;;;;;;26.40;17.05;;;;;;;20.89;68.31;100189.70;1759371;80;28395;-66
2021/10/05 10:26:07;;;;;;;37.13;18.10;;;;;;;21.02;67.60;100179.87;1754535;80;25850;-66
2021/10/05 10:28:42;;;;;;;29.00;16.27;;;;;;;21.02;67.60;100179.87;1769313;80;25740;-66
2021/10/05 10:31:15;;;;;;;38.88;17.10;;;;;;;21.19;67.84;100176.91;1770022;79;26248;-67
2021/10/05 10:33:48;;;;;;;28.12;16.02;;;;;;;21.31;67.56;100173.05;1758512;80;25863;-67
2021/10/05 10:36:30;;;;;;;29.90;14.65;;;;;;;21.43;67.35;100173.23;1776071;79;29606;-66
2021/10/05 10:39:08;;;;;;;26.33;14.40;;;;;;;21.52;67.01;100172.35;1765367;80;27224;-67
2021/10/05 10:41:35;;;;;;;25.43;14.28;;;;;;;21.64;66.80;100158.89;1762931;80;25697;-67
2021/10/05 10:44:05;;;;;;;26.95;13.15;;;;;;;21.77;66.57;100158.55;1778513;80;26055;-67
2021/10/05 10:46:36;;;;;;;22.87;12.18;;;;;;;21.91;66.26;100155.84;1771727;80;26486;-67
2021/10/05 10:49:13;;;;;;;22.80;12.23;;;;;;;22.02;66.08;100161.12;1774121;80;29431;-67
2021/10/05 10:51:43;;;;;;;28.12;13.18;;;;;;;22.14;65.79;100150.87;1762858;80;25786;-67
2021/10/05 10:54:18;;;;;;;22.77;11.20;;;;;;;22.27;65.32;100152.22;1774218;80;25632;-67
2021/10/05 10:56:49;;;;;;;23.57;10.68;;;;;;;22.40;64.95;100140.92;1778719;80;26061;-69
2021/10/05 10:59:18;;;;;;;20.10;11.12;;;;;;;22.50;64.76;100144.45;1764566;80;25898;-67
2021/10/05 11:01:50;;;;;;;26.33;10.95;;;;;;;22.62;64.51;100140.98;1759156;80;27457;-67
2021/10/05 11:04:18;;;;;;;21.37;11.53;;;;;;;22.74;63.86;100131.53;1765581;80;26529;-64
2021/10/05 11:06:51;;;;;;;30.65;12.43;;;;;;;22.83;63.25;100123.80;1712349;82;25756;-66
2021/10/05 11:09:17;;;;;;;24.27;12.43;;;;;;;22.94;63.00;100122.69;1709534;81;26494;-66
2021/10/05 11:11:50;;;;;;;18.55;10.10;;;;;;;23.06;62.80;100103.64;1726097;81;25736;-66
2021/10/05 11:14:26;;;;;;;34.55;11.50;;;;;;;23.20;62.17;100100.33;1721943;81;27352;-68